Time;durP1;ratioP1;P1;durP2;ratioP2;P2;SDS_P1;SDS_P2;PMS_P1;PMS_P2;Temp;Humidity;BMP_temperature;BMP_pressure;BME280_temperature;BME280_humidity;BME280_pressure;Samples;Min_cycle;Max_cycle;Signal;HPM_P1;HPM_P2
2022/05/07 00:01:19;;;;;;;26.88;24.27;;;14.00;84.70;;;12.41;100.00;96498.16;4864063;28;20329;-67
2022/05/07 00:03:46;;;;;;;25.30;23.00;;;14.10;84.80;;;12.41;100.00;96502.63;4840479;28;20518;-68
2022/05/07 00:06:12;;;;;;;27.67;24.52;;;14.00;84.90;;;12.41;100.00;96495.50;4862500;28;20700;-69
2022/05/07 00:08:38;;;;;;;30.55;24.20;;;14.00;84.80;;;12.41;100.00;96499.97;4867396;28;20489;-70
2022/05/07 00:11:04;;;;;;;25.73;23.23;;;14.00;84.90;;;12.41;100.00;96502.63;4864299;28;20561;-68
2022/05/07 00:13:30;;;;;;;27.58;24.90;;;14.00;84.90;;;12.41;100.00;96494.69;4845986;28;20506;-68
2022/05/07 00:18:41;;;;;;;26.60;23.80;;;14.00;85.00;;;12.41;100.00;96495.50;4863396;28;20574;-68
2022/05/07 00:21:08;;;;;;;27.05;24.45;;;14.00;85.00;;;12.41;100.00;96494.69;4871873;28;20349;-67
2022/05/07 00:23:34;;;;;;;28.98;26.13;;;14.00;85.10;;;12.43;100.00;96492.69;4888899;28;20320;-68
2022/05/07 00:26:00;;;;;;;29.48;26.48;;;14.00;84.90;;;12.44;100.00;96491.69;4855067;28;20343;-67
2022/05/07 00:28:26;;;;;;;29.75;26.73;;;14.00;84.80;;;12.42;100.00;96477.84;4836911;28;20332;-68
2022/05/07 00:30:52;;;;;;;29.65;26.77;;;14.00;85.00;;;12.41;100.00;96486.78;4823606;28;20787;-68
2022/05/07 00:33:18;;;;;;;30.40;27.40;;;14.00;84.90;;;12.42;100.00;96481.31;4838323;28;20329;-68
2022/05/07 00:35:44;;;;;;;30.00;27.00;;;14.00;84.90;;;12.41;100.00;96481.50;4859813;28;20356;-67
2022/05/07 00:38:10;;;;;;;29.55;26.65;;;14.00;84.90;;;12.40;100.00;96480.69;4861632;28;20434;-67
2022/05/07 00:40:36;;;;;;;30.75;27.67;;;14.10;85.00;;;12.39;100.00;96475.59;4878139;28;20448;-68
2022/05/07 00:43:02;;;;;;;31.08;28.08;;;14.00;85.00;;;12.39;100.00;96472.97;4865468;28;20467;-67
2022/05/07 00:45:28;;;;;;;29.27;26.42;;;14.00;85.10;;;12.39;100.00;96472.97;4858180;28;20332;-67
2022/05/07 00:47:54;;;;;;;31.60;28.60;;;14.00;85.20;;;12.39;100.00;96462.41;4850853;28;20295;-68
2022/05/07 00:53:05;;;;;;;32.65;29.17;;;14.00;85.10;;;12.36;100.00;96465.44;4880956;28;20349;-67
2022/05/07 00:55:31;;;;;;;33.55;30.30;;;14.00;85.00;;;12.34;100.00;96460.34;4850531;28;20369;-67
2022/05/07 00:57:57;;;;;;;33.17;29.77;;;13.90;85.00;;;12.33;100.00;96458.72;4872933;28;20334;-68
2022/05/07 01:00:23;;;;;;;32.58;29.23;;;13.90;85.00;;;12.32;100.00;96445.72;4861736;28;20327;-68
2022/05/07 01:02:49;;;;;;;33.00;29.50;;;13.90;85.10;;;12.30;100.00;96453.03;4867317;28;20235;-68
2022/05/07 01:05:15;;;;;;;31.63;28.55;;;13.90;85.10;;;12.30;100.00;96447.75;4867503;28;20359;-68
2022/05/07 01:07:43;;;;;;;31.02;27.83;;;13.90;85.10;;;12.30;100.00;96450.38;4867289;28;20256;-68
2022/05/07 01:10:10;;;;;;;31.95;28.67;;;13.90;85.20;;;12.29;100.00;96451.38;4849376;28;20686;-67
2022/05/07 01:12:36;;;;;;;34.28;28.83;;;13.90;85.00;;;12.26;100.00;96448.13;4859045;28;20042;-67
2022/05/07 01:15:02;;;;;;;32.13;28.73;;;13.90;85.00;;;12.25;100.00;96446.50;4845357;28;20369;-67
2022/05/07 01:17:32;;;;;;;31.05;27.95;;;13.90;85.10;;;12.26;100.00;96448.13;4873374;28;20615;-67
2022/05/07 01:19:58;;;;;;;31.30;28.02;;;13.90;85.20;;;12.25;100.00;96446.50;4877870;28;20424;-67
2022/05/07 01:22:24;;;;;;;32.20;28.75;;;13.90;85.10;;;12.24;100.00;96447.50;4868526;28;20345;-67
2022/05/07 01:24:50;;;;;;;32.60;29.25;;;13.90;85.20;;;12.25;100.00;96446.50;4858710;28;20345;-67
2022/05/07 01:27:17;;;;;;;31.85;28.75;;;13.90;85.20;;;12.25;100.00;96446.50;4861446;28;20206;-67
2022/05/07 01:29:43;;;;;;;32.58;29.17;;;13.90;85.30;;;12.24;100.00;96439.59;4849967;28;20878;-67
2022/05/07 01:32:09;;;;;;;33.78;30.55;;;13.80;85.30;;;12.23;100.00;96435.31;4849660;28;20318;-68
2022/05/07 01:34:35;;;;;;;36.88;30.30;;;13.80;85.30;;;12.22;100.00;96444.25;4867864;28;20378;-67
2022/05/07 01:37:01;;;;;;;34.70;31.17;;;13.80;85.40;;;12.22;100.00;96444.25;4856389;28;20350;-67
2022/05/07 01:39:27;;;;;;;33.63;30.27;;;13.80;85.50;;;12.23;100.00;96440.59;4873183;28;20432;-67
2022/05/07 01:41:53;;;;;;;33.17;29.77;;;13.80;85.60;;;12.22;100.00;96441.59;4852078;28;20566;-67
2022/05/07 01:44:19;;;;;;;34.60;31.00;;;13.80;85.50;;;12.22;100.00;96438.13;4862882;28;20641;-67
2022/05/07 01:49:30;;;;;;;33.47;29.92;;;13.80;85.40;;;12.22;100.00;96436.34;4865075;28;20459;-68
2022/05/07 01:51:56;;;;;;;34.03;30.70;;;13.80;85.50;;;12.22;100.00;96436.34;4850640;28;20774;-68
2022/05/07 01:54:22;;;;;;;34.45;30.83;;;13.80;85.60;;;12.22;100.00;96441.59;4872547;28;20459;-67
2022/05/07 01:56:48;;;;;;;32.78;29.38;;;13.80;85.50;;;12.23;100.00;96443.25;4831344;28;20277;-67
2022/05/07 01:59:14;;;;;;;32.72;29.55;;;13.90;85.60;;;12.24;100.00;96438.78;4836025;28;20399;-67
2022/05/07 02:01:40;;;;;;;32.20;28.90;;;13.80;85.40;;;12.22;100.00;96441.59;4880981;28;20468;-67
2022/05/07 02:04:06;;;;;;;33.75;30.17;;;13.80;85.30;;;12.23;100.00;96437.97;4889403;28;20312;-67
2022/05/07 02:06:32;;;;;;;25.75;23.23;;;13.80;85.40;;;12.21;100.00;96439.94;4898930;28;20540;-69
2022/05/07 02:08:58;;;;;;;33.25;29.95;;;13.80;85.40;;;12.20;100.00;96443.59;4880772;28;20394;-68
2022/05/07 02:11:24;;;;;;;33.72;30.08;;;13.80;85.40;;;12.19;100.00;96436.69;4873086;28;20649;-68
2022/05/07 02:13:50;;;;;;;33.58;30.17;;;13.70;85.40;;;12.18;100.00;96445.59;4856547;28;20599;-68
2022/05/07 02:16:16;;;;;;;33.42;30.17;;;13.70;85.40;;;12.16;100.00;96434.44;4847057;28;20441;-68
2022/05/07 02:18:42;;;;;;;33.38;29.85;;;13.70;85.40;;;12.16;100.00;96441.53;4856778;28;20558;-68
2022/05/07 02:21:08;;;;;;;32.80;29.60;;;13.70;85.40;;;12.13;100.00;96437.47;4873932;28;20720;-68
2022/05/07 02:23:34;;;;;;;35.70;32.20;;;13.70;85.40;;;12.13;100.00;96437.47;4860054;28;20323;-68
2022/05/07 02:26:00;;;;;;;34.38;30.88;;;13.70;85.50;;;12.13;100.00;96436.66;4858386;28;20500;-68
2022/05/07 02:28:26;;;;;;;34.15;30.80;;;13.60;85.70;;;12.12;100.00;96435.00;4846397;28;20376;-68
2022/05/07 02:30:52;;;;;;;33.67;30.48;;;13.70;85.70;;;12.12;100.00;96432.38;4841181;28;20369;-67
2022/05/07 02:33:18;;;;;;;33.42;30.17;;;13.70;85.60;;;12.10;100.00;96429.94;4877321;28;20854;-68
2022/05/07 02:35:45;;;;;;;32.88;29.38;;;13.60;85.60;;;12.09;100.00;96430.13;4844403;28;20578;-68
2022/05/07 02:38:11;;;;;;;31.77;28.67;;;13.70;85.60;;;12.09;100.00;96430.13;4855397;28;20335;-68
2022/05/07 02:43:22;;;;;;;33.72;30.13;;;13.70;85.50;;;12.07;100.00;96426.88;4875708;28;20358;-67
2022/05/07 02:45:48;;;;;;;31.92;28.55;;;13.70;85.50;;;12.06;100.00;96431.31;4862701;28;20297;-67
2022/05/07 02:48:14;;;;;;;32.03;28.88;;;13.60;85.60;;;12.04;100.00;96435.97;4850867;28;20589;-68
2022/05/07 02:50:40;;;;;;;35.50;31.80;;;13.60;85.60;;;12.03;100.00;96434.34;4855161;28;20385;-68
2022/05/07 02:53:06;;;;;;;32.88;29.60;;;13.60;85.70;;;12.02;100.00;96430.06;4862943;28;20357;-67
2022/05/07 02:55:32;;;;;;;34.67;31.08;;;13.60;85.80;;;12.01;100.00;96439.00;4870001;28;20326;-68
2022/05/07 02:57:58;;;;;;;34.80;31.40;;;13.60;85.70;;;12.01;100.00;96427.63;4870859;28;20412;-68
2022/05/07 03:00:24;;;;;;;33.55;29.95;;;13.60;85.90;;;11.99;100.00;96430.44;4856140;28;20860;-68
2022/05/07 03:02:50;;;;;;;33.28;30.08;;;13.60;85.90;;;11.99;100.00;96424.34;4871918;28;20197;-69
2022/05/07 03:05:16;;;;;;;35.22;31.73;;;13.60;85.80;;;11.99;100.00;96429.63;4849259;28;20421;-70
2022/05/07 03:07:42;;;;;;;34.58;31.02;;;13.60;85.80;;;11.98;100.00;96431.44;4872179;28;20300;-68
2022/05/07 03:10:08;;;;;;;34.35;30.83;;;13.60;85.90;;;11.99;100.00;96429.63;4871535;28;20326;-68
2022/05/07 03:12:35;;;;;;;33.25;29.85;;;13.60;85.90;;;12.00;100.00;96426.81;4880012;28;20336;-69
2022/05/07 03:15:01;;;;;;;32.47;29.00;;;13.60;85.90;;;11.99;100.00;96433.06;4872146;28;20361;-69
2022/05/07 03:17:27;;;;;;;33.03;29.73;;;13.60;85.90;;;11.99;100.00;96430.44;4869241;28;20343;-69
2022/05/07 03:19:53;;;;;;;34.15;30.65;;;13.60;85.90;;;11.98;100.00;96431.44;4857168;28;20453;-69
2022/05/07 03:22:20;;;;;;;32.55;29.17;;;13.60;85.80;;;12.00;100.00;96431.28;4873835;28;20316;-69
2022/05/07 03:24:46;;;;;;;32.88;29.48;;;13.60;85.90;;;12.00;100.00;96432.09;4886376;28;20768;-69
2022/05/07 03:27:12;;;;;;;33.00;29.75;;;13.70;85.90;;;11.99;100.00;96425.16;4866923;28;20383;-68
2022/05/07 03:29:38;;;;;;;33.90;30.55;;;13.60;85.90;;;11.98;100.00;96428.78;4879851;28;20038;-69
2022/05/07 03:32:05;;;;;;;33.60;30.35;;;13.60;86.00;;;12.00;100.00;96420.72;4870728;28;20221;-66
2022/05/07 03:34:31;;;;;;;33.97;30.38;;;13.60;86.00;;;12.01;100.00;96427.63;4857573;28;20570;-68
2022/05/07 03:36:57;;;;;;;34.85;31.23;;;13.70;86.00;;;12.02;100.00;96431.91;4858487;28;20324;-67
2022/05/07 03:39:24;;;;;;;34.50;31.00;;;13.70;86.00;;;12.03;100.00;96426.44;4878603;28;20353;-68
2022/05/07 03:41:50;;;;;;;34.92;31.52;;;13.70;86.00;;;12.03;100.00;96430.91;4864867;28;20373;-67
2022/05/07 03:44:16;;;;;;;34.92;31.52;;;13.70;86.00;;;12.02;100.00;96427.44;4857436;28;20322;-67
2022/05/07 03:46:42;;;;;;;35.40;31.67;;;13.70;86.00;;;12.03;100.00;96422.97;4923850;28;20562;-66
2022/05/07 03:49:09;;;;;;;36.28;32.42;;;13.70;85.90;;;12.02;100.00;96424.81;4923868;28;20445;-67
2022/05/07 03:53:29;;;;;;;35.13;31.50;;;13.70;85.90;;;12.04;100.00;96428.06;4909602;28;20567;-67
2022/05/07 03:54:21;;;;;;;35.50;31.90;;;13.70;86.00;;;12.05;100.00;96428.88;4868924;28;20360;-68
2022/05/07 03:56:47;;;;;;;35.60;30.42;;;13.70;86.10;;;12.05;100.00;96434.16;4836375;28;20325;-68
2022/05/07 03:59:13;;;;;;;36.97;33.22;;;13.70;86.00;;;12.05;100.00;96424.41;4884354;28;20581;-67
2022/05/07 04:01:39;;;;;;;36.67;32.78;;;13.70;86.00;;;12.05;100.00;96427.06;4884287;28;20361;-68
2022/05/07 04:04:05;;;;;;;37.03;33.10;;;13.70;86.00;;;12.06;100.00;96427.88;4861656;28;20407;-68
2022/05/07 04:06:31;;;;;;;38.05;34.17;;;13.70;86.00;;;12.06;100.00;96436.59;4859240;28;20626;-69
2022/05/07 04:08:57;;;;;;;37.63;33.83;;;13.70;86.10;;;12.06;100.00;96427.88;4867944;28;20463;-69
2022/05/07 04:11:23;;;;;;;37.72;33.83;;;13.70;86.10;;;12.07;100.00;96435.59;4868873;28;20556;-70
2022/05/07 04:13:49;;;;;;;37.28;33.22;;;13.70;86.10;;;12.08;100.00;96441.69;4859772;28;20365;-69
2022/05/07 04:16:15;;;;;;;37.08;33.20;;;13.70;86.00;;;12.07;100.00;96432.13;4889570;28;20500;-70
2022/05/07 04:18:41;;;;;;;38.08;34.15;;;13.70;86.00;;;12.08;100.00;96431.94;4870468;28;20209;-69
2022/05/07 04:21:07;;;;;;;53.38;45.83;;;13.70;85.90;;;12.11;100.00;96434.19;4865388;28;20832;-69
2022/05/07 04:23:33;;;;;;;41.65;37.28;;;13.70;85.90;;;12.14;100.00;96431.19;4883894;28;20748;-69
2022/05/07 04:25:59;;;;;;;45.25;40.53;;;13.80;85.90;;;12.14;100.00;96436.44;4845506;28;20304;-69
2022/05/07 04:28:26;;;;;;;39.42;35.38;;;13.90;85.90;;;12.15;100.00;96429.34;4855407;28;20369;-66
2022/05/07 04:30:52;;;;;;;41.88;37.58;;;13.80;85.80;;;12.17;100.00;96435.25;4834268;28;20345;-70
2022/05/07 04:33:18;;;;;;;38.50;34.55;;;13.90;85.80;;;12.20;100.00;96429.59;4836963;28;20534;-69
2022/05/07 04:35:44;;;;;;;36.88;33.08;;;13.90;85.70;;;12.22;100.00;96436.34;4905217;28;20560;-68
2022/05/07 04:38:10;;;;;;;41.97;37.53;;;13.90;85.90;;;12.24;100.00;96428.22;4886406;28;20463;-69
2022/05/07 04:40:36;;;;;;;44.17;39.55;;;14.00;85.90;;;12.27;100.00;96433.94;4870524;28;20368;-69
2022/05/07 04:43:02;;;;;;;46.67;41.90;;;14.10;85.70;;;12.29;100.00;96436.38;4868242;28;20330;-69
2022/05/07 04:45:28;;;;;;;41.38;37.08;;;14.00;85.60;;;12.32;100.00;96435.19;4853839;28;20357;-69
2022/05/07 04:47:54;;;;;;;45.33;40.75;;;14.10;85.60;;;12.33;100.00;96434.16;4867958;28;20049;-69
2022/05/07 04:50:20;;;;;;;40.45;36.42;;;14.10;85.60;;;12.34;100.00;96433.97;4863715;28;20346;-69
2022/05/07 04:52:51;;;;;;;;;;;14.00;85.70;;;12.35;100.00;96434.78;4846821;28;20378;-69
2022/05/07 04:55:17;;;;;;;41.40;37.17;;;14.10;85.60;;;12.35;100.00;96438.25;4869496;28;20765;-69
2022/05/07 04:57:43;;;;;;;37.40;33.40;;;14.10;85.60;;;12.37;100.00;96438.88;4876204;28;20362;-69
2022/05/07 05:00:10;;;;;;;45.97;41.35;;;14.10;85.50;;;12.40;100.00;96437.66;4873853;28;20385;-70
2022/05/07 05:02:36;;;;;;;40.60;36.40;;;14.10;85.40;;;12.43;100.00;96437.28;4867031;28;20364;-69
2022/05/07 05:05:02;;;;;;;50.13;45.03;;;14.20;85.20;;;12.41;100.00;96440.09;4868035;28;20356;-69
2022/05/07 05:07:28;;;;;;;39.22;35.10;;;14.20;85.30;;;12.47;100.00;96438.56;4868393;28;20353;-70
2022/05/07 05:09:54;;;;;;;40.08;36.30;;;14.30;85.00;;;12.50;100.00;96438.16;4872932;28;20326;-69
2022/05/07 05:12:22;;;;;;;37.53;33.70;;;14.30;85.00;;;12.54;100.00;96444.69;4869268;28;20353;-69
2022/05/07 05:15:07;;;;;;;36.00;32.40;;;14.40;84.50;;;12.53;100.00;96450.97;4852989;28;20689;-69
2022/05/07 05:17:33;;;;;;;34.50;30.85;;;14.40;84.30;;;12.54;100.00;96449.97;4843773;28;20719;-69
2022/05/07 05:20:01;;;;;;;35.35;31.85;;;14.40;84.30;;;12.56;100.00;96461.13;4869023;28;20364;-69
2022/05/07 05:22:27;;;;;;;38.88;35.00;;;14.30;84.50;;;12.57;100.00;96460.94;4834893;28;20361;-70
2022/05/07 05:24:53;;;;;;;44.80;40.17;;;14.40;84.50;;;12.61;100.00;96456.09;4881926;28;20439;-69
2022/05/07 05:27:20;;;;;;;40.40;36.30;;;14.40;84.40;;;12.63;100.00;96454.06;4867900;28;20511;-69
2022/05/07 05:29:46;;;;;;;34.90;31.52;;;14.40;84.30;;;12.65;100.00;96461.78;4868522;28;20355;-69
2022/05/07 05:32:18;;;;;;;34.20;30.80;;;14.40;84.60;;;12.68;100.00;96467.53;4868187;28;20584;-69
2022/05/07 05:34:49;;;;;;;34.38;30.90;;;14.50;84.40;;;12.70;100.00;96465.50;4868913;28;20293;-69
2022/05/07 05:37:15;;;;;;;33.30;29.75;;;14.50;84.40;;;12.72;100.00;96463.47;4879624;28;20413;-69
2022/05/07 05:39:41;;;;;;;32.72;29.58;;;14.50;84.10;;;12.74;100.00;96466.75;4850626;28;20628;-69
2022/05/07 05:42:08;;;;;;;31.30;28.20;;;14.50;84.10;;;12.75;100.00;96463.09;4868915;28;20546;-70
2022/05/07 05:44:41;;;;;;;33.15;29.98;;;14.60;84.30;;;12.80;100.00;96473.06;4886891;28;20368;-70
2022/05/07 05:47:07;;;;;;;33.17;29.83;;;14.60;84.20;;;12.83;100.00;96476.13;4866972;28;20452;-68
2022/05/07 05:49:34;;;;;;;33.05;29.58;;;14.70;84.10;;;12.88;100.00;96478.19;4852687;28;20504;-69
2022/05/07 05:52:04;;;;;;;33.42;30.10;;;14.70;84.00;;;12.93;100.00;96475.81;4864380;28;20335;-69
2022/05/07 05:54:30;;;;;;;32.00;28.90;;;14.80;83.60;;;12.98;100.00;96472.56;4849690;28;20390;-69
2022/05/07 05:56:57;;;;;;;32.65;29.45;;;14.90;83.80;;;13.05;100.00;96476.06;4852792;28;20412;-69
2022/05/07 05:59:24;;;;;;;32.10;28.88;;;15.00;83.50;;;13.13;100.00;96475.91;4875907;28;20428;-70
2022/05/07 06:01:50;;;;;;;31.45;28.40;;;15.10;83.00;;;13.21;100.00;96475.78;4885775;28;20403;-70
2022/05/07 06:04:16;;;;;;;31.23;28.23;;;15.20;82.90;;;13.28;100.00;96471.31;4837398;28;20531;-69
2022/05/07 06:06:42;;;;;;;31.92;28.63;;;15.30;82.60;;;13.36;100.00;96470.38;4836569;28;20653;-70
2022/05/07 06:09:08;;;;;;;29.98;27.08;;;15.40;82.50;;;13.44;100.00;96473.63;4873778;28;20456;-69
2022/05/07 06:11:34;;;;;;;30.73;27.77;;;15.50;81.80;;;13.47;100.00;96478.53;4883060;28;20403;-70
2022/05/07 06:14:01;;;;;;;29.58;26.73;;;15.50;81.70;;;13.52;100.00;96474.47;4836812;28;20310;-70
2022/05/07 06:16:27;;;;;;;29.20;26.38;;;15.50;81.60;;;13.57;100.00;96479.97;4848221;28;20582;-69
2022/05/07 06:18:53;;;;;;;30.92;28.02;;;15.60;81.20;;;13.63;100.00;96468.63;4862913;28;20843;-70
2022/05/07 06:21:19;;;;;;;34.50;31.15;;;15.70;81.10;;;13.74;100.00;96475.97;4848947;28;20405;-70
2022/05/07 06:23:45;;;;;;;32.20;28.83;;;15.90;80.70;;;13.84;100.00;96484.34;4849574;28;20578;-70
2022/05/07 06:28:56;;;;;;;29.83;26.95;;;16.20;79.90;;;14.08;100.00;96480.31;4874746;28;20357;-69
2022/05/07 06:31:21;;;;;;;26.08;23.77;;;16.40;79.60;;;14.19;99.70;96486.84;4836574;28;20572;-69
2022/05/07 06:33:48;;;;;;;26.75;24.25;;;16.40;78.80;;;14.25;98.44;96480.72;4867542;28;20597;-69
2022/05/07 06:36:14;;;;;;;26.42;23.83;;;16.40;78.30;;;14.31;97.92;96479.94;4880857;28;20581;-69
2022/05/07 06:38:40;;;;;;;26.02;23.40;;;16.40;78.60;;;14.33;97.57;96478.72;4844534;28;20369;-69
2022/05/07 06:41:06;;;;;;;26.27;23.80;;;16.40;78.70;;;14.39;96.63;96477.09;4874940;28;20348;-70
2022/05/07 06:43:35;;;;;;;26.95;24.42;;;16.50;78.30;;;14.46;95.59;96474.47;4836452;28;20371;-69
2022/05/07 06:46:01;;;;;;;26.92;24.33;;;16.60;77.50;;;14.50;95.72;96473.88;4841954;28;20515;-69
2022/05/07 06:48:27;;;;;;;27.35;24.35;;;16.70;77.50;;;14.57;95.44;96484.44;4854264;28;20421;-69
2022/05/07 06:50:54;;;;;;;25.83;23.23;;;16.70;77.40;;;14.66;96.31;96481.38;4859752;28;20205;-68
2022/05/07 06:53:20;;;;;;;25.20;22.80;;;16.90;77.20;;;14.78;95.76;96480.78;4845324;28;20337;-67
2022/05/07 06:55:55;;;;;;;24.27;21.85;;;17.10;76.80;;;14.88;94.65;96479.31;4866758;28;20412;-68
2022/05/07 06:58:34;;;;;;;23.58;21.30;;;17.20;76.00;;;15.00;94.26;96479.50;4857384;28;20872;-68
2022/05/07 07:01:01;;;;;;;23.20;20.83;;;17.30;75.60;;;15.09;94.33;96480.09;4847251;28;20369;-67
2022/05/07 07:03:28;;;;;;;28.27;25.38;;;17.50;75.60;;;15.15;93.11;96476.59;4864351;28;20480;-67
2022/05/07 07:05:55;;;;;;;23.70;21.30;;;17.50;75.50;;;15.23;92.82;96479.88;4868254;28;20355;-67
2022/05/07 07:08:21;;;;;;;23.10;20.70;;;17.40;75.20;;;15.27;91.98;96481.06;4868193;28;20606;-68
2022/05/07 07:10:48;;;;;;;23.13;20.92;;;17.40;74.70;;;15.28;92.00;96488.00;4851242;28;20558;-68
2022/05/07 07:13:16;;;;;;;22.58;20.38;;;17.30;74.90;;;15.26;91.92;96483.94;4864979;28;20381;-68
2022/05/07 07:15:42;;;;;;;22.08;20.00;;;17.10;75.80;;;15.24;91.70;96481.50;4864404;28;20372;-69
2022/05/07 07:18:12;;;;;;;22.42;20.20;;;17.10;75.70;;;15.16;91.05;96480.88;4889887;28;20499;-66
2022/05/07 07:20:39;;;;;;;22.42;20.33;;;16.90;75.70;;;15.10;90.93;96487.84;4874895;28;20425;-68
2022/05/07 07:23:06;;;;;;;23.35;21.02;;;16.90;76.30;;;15.05;90.69;96479.69;4870138;28;20471;-67
2022/05/07 07:25:33;;;;;;;23.55;21.10;;;16.80;76.60;;;14.99;91.70;96483.19;4868732;28;20289;-67
2022/05/07 07:27:59;;;;;;;24.15;21.80;;;16.70;77.30;;;14.97;90.84;96485.22;4867358;28;20696;-67
2022/05/07 07:30:25;;;;;;;25.63;23.13;;;16.80;77.50;;;14.91;91.08;96488.69;4866817;28;20362;-66
2022/05/07 07:32:51;;;;;;;23.65;21.42;;;16.70;77.40;;;14.88;91.16;96486.44;4852460;28;20372;-70
2022/05/07 07:35:17;;;;;;;23.40;21.15;;;16.60;77.40;;;14.85;91.52;96484.22;4863392;28;20296;-70
2022/05/07 07:37:45;;;;;;;23.50;21.30;;;16.50;77.50;;;14.82;91.63;96489.94;4852093;28;20472;-69
2022/05/07 07:40:13;;;;;;;23.00;20.60;;;16.50;77.60;;;14.79;92.27;96490.34;4885560;28;20610;-68
2022/05/07 07:42:41;;;;;;;22.27;20.17;;;16.60;77.40;;;14.77;92.04;96484.44;4882806;28;20362;-70
2022/05/07 07:47:57;;;;;;;18.85;17.05;;;16.60;77.00;;;14.78;91.33;96486.06;4883185;28;20592;-68
2022/05/07 07:50:24;;;;;;;18.98;17.20;;;16.70;76.20;;;14.80;90.45;96486.69;4867190;28;20364;-68
2022/05/07 07:52:54;;;;;;;19.23;17.35;;;16.70;76.40;;;14.83;89.88;96486.25;4866495;28;20514;-67
2022/05/07 07:55:20;;;;;;;19.73;17.77;;;16.80;76.10;;;14.85;90.71;96492.16;4886103;28;20366;-67
2022/05/07 07:57:46;;;;;;;23.95;21.38;;;16.90;75.90;;;14.94;92.03;96490.94;4854248;28;20473;-67
2022/05/07 08:00:13;;;;;;;19.98;18.10;;;17.10;76.10;;;15.06;91.48;96485.81;4852520;28;20513;-68
2022/05/07 08:02:54;;;;;;;18.63;16.83;;;17.30;75.20;;;15.24;90.74;96485.97;4882285;28;20487;-68
2022/05/07 08:05:25;;;;;;;21.98;15.55;;;17.70;74.40;;;15.41;89.93;96489.00;4877109;28;20366;-67
2022/05/07 08:13:20;;;;;;;16.42;14.82;;;18.30;72.70;;;15.92;87.76;96481.84;4870626;28;20331;-67
2022/05/07 08:15:46;;;;;;;15.15;13.68;;;18.30;71.30;;;16.03;87.85;96487.47;4853529;28;20803;-68
2022/05/07 08:18:13;;;;;;;16.08;14.48;;;18.40;71.10;;;16.10;86.51;96485.63;4853619;28;20321;-68
2022/05/07 08:20:41;;;;;;;15.02;13.65;;;18.40;70.60;;;16.14;85.56;96492.94;4868792;28;20419;-68
2022/05/07 08:23:08;;;;;;;16.55;15.05;;;18.30;70.50;;;16.15;85.40;96493.75;4856010;28;20465;-66
2022/05/07 08:25:42;;;;;;;17.55;15.85;;;18.10;71.30;;;16.11;85.34;96498.66;4863788;28;20409;-68
2022/05/07 08:28:09;;;;;;;15.85;14.35;;;18.00;72.60;;;16.06;84.83;96495.81;4884091;28;20565;-69
2022/05/07 08:30:36;;;;;;;15.82;14.23;;;17.80;72.20;;;15.96;84.36;96494.66;4894840;28;20407;-68
2022/05/07 08:33:04;;;;;;;16.30;14.75;;;17.60;71.80;;;15.88;84.57;96496.56;4885097;28;20453;-68
2022/05/07 08:35:30;;;;;;;15.98;14.38;;;17.60;72.40;;;15.80;84.84;96498.63;4852337;28;20544;-68
2022/05/07 08:37:56;;;;;;;16.67;15.07;;;17.50;72.80;;;15.71;84.29;96497.25;4862745;28;20373;-68
2022/05/07 08:40:22;;;;;;;16.05;14.40;;;17.40;73.40;;;15.63;84.47;96500.97;4865070;28;20370;-68
2022/05/07 08:42:49;;;;;;;16.63;14.93;;;17.30;73.80;;;15.56;85.81;96500.13;4860874;28;20191;-68
2022/05/07 08:45:15;;;;;;;16.48;14.85;;;17.20;74.20;;;15.50;85.91;96500.97;4851638;28;20360;-68
2022/05/07 08:47:41;;;;;;;15.85;14.35;;;17.10;74.60;;;15.41;85.59;96496.94;4848922;28;20409;-69
2022/05/07 08:50:09;;;;;;;16.60;14.82;;;17.00;74.60;;;15.32;85.22;96499.81;4868223;28;20707;-66
2022/05/07 08:52:46;;;;;;;17.38;15.73;;;16.90;74.70;;;15.24;85.64;96502.69;4828108;28;20884;-67
2022/05/07 08:55:18;;;;;;;17.63;15.93;;;16.80;75.80;;;15.16;85.93;96505.56;4870162;28;20360;-68
2022/05/07 08:57:46;;;;;;;17.75;16.15;;;16.70;75.90;;;15.06;86.74;96509.66;4873831;28;20424;-68
2022/05/07 09:00:14;;;;;;;18.70;16.80;;;16.60;76.30;;;14.96;87.33;96512.75;4870448;28;20508;-67
2022/05/07 09:02:44;;;;;;;17.85;16.10;;;16.50;76.00;;;14.86;85.44;96514.97;4866529;28;20496;-69
2022/05/07 09:05:12;;;;;;;18.65;16.65;;;16.40;75.50;;;14.77;87.09;96511.75;4847991;28;20201;-69
2022/05/07 09:07:40;;;;;;;18.70;16.90;;;16.30;75.70;;;14.69;86.27;96515.38;4848805;28;20561;-67
2022/05/07 09:10:11;;;;;;;16.75;15.15;;;16.20;75.80;;;14.67;87.13;96516.63;4853444;28;20429;-67
2022/05/07 09:12:37;;;;;;;16.13;14.60;;;16.30;75.40;;;14.63;85.39;96516.22;4849529;28;20342;-67
2022/05/07 09:15:08;;;;;;;17.50;15.75;;;16.40;74.30;;;14.65;85.40;96513.34;4864703;28;20436;-67
2022/05/07 09:17:35;;;;;;;16.92;15.32;;;16.50;74.50;;;14.70;85.70;96517.00;4867180;28;20408;-68
2022/05/07 09:20:15;;;;;;;29.02;26.00;;;16.60;74.20;;;14.79;85.29;96519.47;4852093;28;20832;-68
2022/05/07 09:22:56;;;;;;;20.48;18.55;;;16.70;74.00;;;14.82;84.92;96521.72;4887147;28;20372;-68
2022/05/07 09:25:27;;;;;;;15.80;14.40;;;16.70;73.90;;;14.84;85.29;96522.31;4864952;28;20432;-68
2022/05/07 09:27:56;;;;;;;15.10;13.65;;;16.70;73.20;;;14.87;86.21;96520.06;4864839;28;20499;-67
2022/05/07 09:30:26;;;;;;;14.93;13.57;;;16.60;73.90;;;14.90;85.63;96521.50;4853378;28;20389;-68
2022/05/07 09:32:54;;;;;;;15.60;14.20;;;16.60;74.10;;;14.92;86.31;96519.44;4877589;28;20300;-66
2022/05/07 09:38:15;;;;;;;15.80;14.30;;;16.70;73.40;;;14.95;85.50;96524.38;4868977;28;20405;-68
2022/05/07 09:40:43;;;;;;;15.52;14.00;;;16.80;73.40;;;15.00;85.81;96516.59;4875113;28;20353;-67
2022/05/07 09:43:12;;;;;;;14.05;12.75;;;17.10;72.60;;;15.09;84.46;96525.13;4865880;28;20577;-67
2022/05/07 09:45:39;;;;;;;12.25;11.15;;;17.10;71.90;;;15.22;84.81;96515.34;4862358;28;20230;-68
2022/05/07 09:48:07;;;;;;;13.13;10.70;;;17.50;71.40;;;15.37;85.07;96524.88;4888087;28;20495;-68
2022/05/07 09:58:52;;;;;;;12.63;11.32;;;18.20;68.80;;;15.91;83.49;96512.03;4875626;28;20550;-68
2022/05/07 10:01:21;;;;;;;12.88;11.40;;;18.30;69.20;;;16.07;83.10;96517.84;4842625;28;20559;-69
2022/05/07 10:04:32;;;;;;;11.00;10.00;;;18.50;68.90;;;16.18;80.65;96509.22;4883248;28;20504;-69
2022/05/07 10:07:38;;;;;;;11.30;10.20;;;18.60;68.40;;;16.29;79.58;96505.06;4896111;28;20326;-67
2022/05/07 10:10:16;;;;;;;11.73;10.65;;;18.60;67.20;;;16.43;79.53;96507.44;4878175;28;20472;-67
2022/05/07 10:12:46;;;;;;;10.98;9.88;;;19.00;66.40;;;16.56;79.92;96500.41;4872455;28;20332;-69
2022/05/07 10:15:15;;;;;;;11.10;10.10;;;19.00;66.00;;;16.69;80.24;96501.13;4865742;28;20213;-68
2022/05/07 10:17:43;;;;;;;10.20;9.30;;;19.20;66.00;;;16.78;79.10;96499.03;4834090;28;20701;-69
2022/05/07 10:20:12;;;;;;;20.80;10.32;;;19.10;65.30;;;16.86;79.02;96506.69;4863055;28;20356;-70
2022/05/07 10:22:39;;;;;;;11.35;10.25;;;19.20;64.90;;;16.91;77.90;96498.06;4866808;28;20507;-67
2022/05/07 10:25:13;;;;;;;12.38;10.63;;;19.10;64.90;;;16.84;76.54;96504.28;4862695;28;20398;-68
2022/05/07 10:27:44;;;;;;;12.85;11.55;;;18.80;65.60;;;16.83;77.22;96505.31;4878669;28;20373;-69
2022/05/07 10:30:22;;;;;;;16.35;11.23;;;18.80;66.50;;;16.86;76.75;96498.72;4853560;28;20331;-69
2022/05/07 10:33:01;;;;;;;12.38;11.27;;;18.80;65.90;;;16.81;76.45;96503.91;4852150;28;20046;-69
2022/05/07 10:35:53;;;;;;;13.15;11.95;;;18.70;66.20;;;16.79;76.23;96508.63;4845352;28;20419;-68
2022/05/07 10:38:32;;;;;;;11.63;10.55;;;18.80;66.10;;;16.75;76.60;96504.78;4887192;28;20322;-68